sensor_id;sensor_type;location;lat;lon;timestamp;P1;durP1;ratioP1;P2;durP2;ratioP2
50773;SDS011;36745;48.544;8.918;2023-08-12T00:00:28;10.10;;;9.00;;
50773;SDS011;36745;48.544;8.918;2023-08-12T00:03:48;9.30;;;7.78;;
50773;SDS011;36745;48.544;8.918;2023-08-12T00:07:07;9.27;;;7.82;;
50773;SDS011;36745;48.544;8.918;2023-08-12T00:10:26;10.13;;;7.30;;
50773;SDS011;36745;48.544;8.918;2023-08-12T00:13:45;13.40;;;7.97;;
50773;SDS011;36745;48.544;8.918;2023-08-12T00:17:03;13.88;;;8.70;;
50773;SDS011;36745;48.544;8.918;2023-08-12T00:20:22;9.05;;;8.13;;
50773;SDS011;36745;48.544;8.918;2023-08-12T00:23:41;9.85;;;7.78;;
50773;SDS011;36745;48.544;8.918;2023-08-12T00:27:01;11.52;;;7.38;;
50773;SDS011;36745;48.544;8.918;2023-08-12T00:30:20;11.38;;;7.82;;
50773;SDS011;36745;48.544;8.918;2023-08-12T00:33:39;9.55;;;7.60;;
50773;SDS011;36745;48.544;8.918;2023-08-12T00:36:58;14.93;;;7.97;;
50773;SDS011;36745;48.544;8.918;2023-08-12T00:40:17;10.70;;;7.70;;
50773;SDS011;36745;48.544;8.918;2023-08-12T00:43:36;11.25;;;7.40;;
50773;SDS011;36745;48.544;8.918;2023-08-12T00:46:55;14.00;;;7.63;;
50773;SDS011;36745;48.544;8.918;2023-08-12T00:50:14;12.93;;;8.38;;
50773;SDS011;36745;48.544;8.918;2023-08-12T00:53:34;12.60;;;7.82;;
50773;SDS011;36745;48.544;8.918;2023-08-12T00:56:53;13.00;;;7.70;;
50773;SDS011;36745;48.544;8.918;2023-08-12T01:00:12;9.00;;;7.28;;
50773;SDS011;36745;48.544;8.918;2023-08-12T01:03:32;9.13;;;8.10;;
50773;SDS011;36745;48.544;8.918;2023-08-12T01:06:51;10.65;;;7.88;;
50773;SDS011;36745;48.544;8.918;2023-08-12T01:10:10;9.82;;;7.72;;
50773;SDS011;36745;48.544;8.918;2023-08-12T01:13:41;11.75;;;7.88;;
50773;SDS011;36745;48.544;8.918;2023-08-12T01:17:16;11.98;;;8.20;;
50773;SDS011;36745;48.544;8.918;2023-08-12T01:20:36;11.70;;;7.68;;
50773;SDS011;36745;48.544;8.918;2023-08-12T01:23:55;10.52;;;8.18;;
50773;SDS011;36745;48.544;8.918;2023-08-12T01:27:15;14.27;;;7.95;;
50773;SDS011;36745;48.544;8.918;2023-08-12T01:30:35;11.38;;;8.38;;
50773;SDS011;36745;48.544;8.918;2023-08-12T01:34:09;9.00;;;8.05;;
50773;SDS011;36745;48.544;8.918;2023-08-12T01:37:33;13.50;;;8.02;;
50773;SDS011;36745;48.544;8.918;2023-08-12T01:40:54;9.35;;;8.27;;
50773;SDS011;36745;48.544;8.918;2023-08-12T01:44:14;9.98;;;8.82;;
50773;SDS011;36745;48.544;8.918;2023-08-12T01:47:33;12.13;;;8.43;;
50773;SDS011;36745;48.544;8.918;2023-08-12T01:50:52;11.82;;;8.43;;
50773;SDS011;36745;48.544;8.918;2023-08-12T01:54:11;12.25;;;8.30;;
50773;SDS011;36745;48.544;8.918;2023-08-12T01:57:30;11.73;;;8.00;;
50773;SDS011;36745;48.544;8.918;2023-08-12T02:00:49;10.70;;;8.00;;
50773;SDS011;36745;48.544;8.918;2023-08-12T02:04:08;12.30;;;8.50;;
50773;SDS011;36745;48.544;8.918;2023-08-12T02:07:27;14.00;;;8.15;;
50773;SDS011;36745;48.544;8.918;2023-08-12T02:10:46;11.68;;;8.07;;
50773;SDS011;36745;48.544;8.918;2023-08-12T02:14:05;12.10;;;8.32;;
50773;SDS011;36745;48.544;8.918;2023-08-12T02:17:24;13.68;;;8.80;;
50773;SDS011;36745;48.544;8.918;2023-08-12T02:20:43;13.98;;;8.82;;
50773;SDS011;36745;48.544;8.918;2023-08-12T02:24:02;10.27;;;7.90;;
50773;SDS011;36745;48.544;8.918;2023-08-12T02:27:21;11.85;;;8.20;;
50773;SDS011;36745;48.544;8.918;2023-08-12T02:30:42;11.18;;;8.57;;
50773;SDS011;36745;48.544;8.918;2023-08-12T02:34:01;9.27;;;7.85;;
50773;SDS011;36745;48.544;8.918;2023-08-12T02:37:20;12.43;;;8.38;;
50773;SDS011;36745;48.544;8.918;2023-08-12T02:40:39;10.18;;;8.25;;
50773;SDS011;36745;48.544;8.918;2023-08-12T02:43:58;10.70;;;8.25;;
50773;SDS011;36745;48.544;8.918;2023-08-12T02:47:17;9.63;;;8.60;;
50773;SDS011;36745;48.544;8.918;2023-08-12T02:50:36;9.82;;;8.02;;
50773;SDS011;36745;48.544;8.918;2023-08-12T02:53:55;11.38;;;7.78;;
50773;SDS011;36745;48.544;8.918;2023-08-12T02:57:14;10.55;;;8.25;;
50773;SDS011;36745;48.544;8.918;2023-08-12T03:00:33;9.85;;;8.32;;
50773;SDS011;36745;48.544;8.918;2023-08-12T03:03:52;11.27;;;8.00;;
50773;SDS011;36745;48.544;8.918;2023-08-12T03:07:11;10.90;;;8.63;;
50773;SDS011;36745;48.544;8.918;2023-08-12T03:10:30;10.20;;;8.20;;
50773;SDS011;36745;48.544;8.918;2023-08-12T03:13:49;9.63;;;8.52;;
50773;SDS011;36745;48.544;8.918;2023-08-12T03:17:08;10.38;;;8.50;;
50773;SDS011;36745;48.544;8.918;2023-08-12T03:20:27;9.90;;;8.65;;
50773;SDS011;36745;48.544;8.918;2023-08-12T03:23:46;12.70;;;8.55;;
50773;SDS011;36745;48.544;8.918;2023-08-12T03:27:05;14.27;;;8.88;;
50773;SDS011;36745;48.544;8.918;2023-08-12T03:30:24;9.52;;;8.13;;
50773;SDS011;36745;48.544;8.918;2023-08-12T03:33:42;15.20;;;8.63;;
50773;SDS011;36745;48.544;8.918;2023-08-12T03:37:02;9.30;;;8.35;;
50773;SDS011;36745;48.544;8.918;2023-08-12T03:40:21;9.23;;;8.18;;
50773;SDS011;36745;48.544;8.918;2023-08-12T03:43:40;11.80;;;8.80;;
50773;SDS011;36745;48.544;8.918;2023-08-12T03:46:59;12.75;;;8.88;;
50773;SDS011;36745;48.544;8.918;2023-08-12T03:50:18;12.32;;;8.75;;
50773;SDS011;36745;48.544;8.918;2023-08-12T03:53:37;11.15;;;8.50;;
50773;SDS011;36745;48.544;8.918;2023-08-12T03:56:56;8.90;;;7.97;;
50773;SDS011;36745;48.544;8.918;2023-08-12T04:00:15;14.02;;;8.10;;
50773;SDS011;36745;48.544;8.918;2023-08-12T04:03:35;10.05;;;8.23;;
50773;SDS011;36745;48.544;8.918;2023-08-12T04:06:54;11.77;;;8.57;;
50773;SDS011;36745;48.544;8.918;2023-08-12T04:10:13;12.35;;;8.75;;
50773;SDS011;36745;48.544;8.918;2023-08-12T04:13:32;14.38;;;8.35;;
50773;SDS011;36745;48.544;8.918;2023-08-12T04:16:50;13.27;;;8.68;;
50773;SDS011;36745;48.544;8.918;2023-08-12T04:20:09;11.98;;;8.93;;
50773;SDS011;36745;48.544;8.918;2023-08-12T04:23:29;14.23;;;8.38;;
50773;SDS011;36745;48.544;8.918;2023-08-12T04:26:47;10.73;;;7.65;;
50773;SDS011;36745;48.544;8.918;2023-08-12T04:30:06;12.35;;;9.57;;
50773;SDS011;36745;48.544;8.918;2023-08-12T04:33:26;11.77;;;9.25;;
50773;SDS011;36745;48.544;8.918;2023-08-12T04:36:45;12.30;;;9.75;;
50773;SDS011;36745;48.544;8.918;2023-08-12T04:40:04;10.63;;;8.70;;
50773;SDS011;36745;48.544;8.918;2023-08-12T04:43:25;16.00;;;11.27;;
50773;SDS011;36745;48.544;8.918;2023-08-12T04:46:44;15.07;;;11.40;;
50773;SDS011;36745;48.544;8.918;2023-08-12T04:50:03;13.75;;;11.15;;
50773;SDS011;36745;48.544;8.918;2023-08-12T04:53:23;11.60;;;10.40;;
50773;SDS011;36745;48.544;8.918;2023-08-12T04:56:42;14.13;;;10.57;;
50773;SDS011;36745;48.544;8.918;2023-08-12T05:00:01;15.55;;;10.88;;
50773;SDS011;36745;48.544;8.918;2023-08-12T05:03:20;10.98;;;9.43;;
50773;SDS011;36745;48.544;8.918;2023-08-12T05:06:39;17.77;;;10.18;;
50773;SDS011;36745;48.544;8.918;2023-08-12T05:09:58;14.73;;;10.93;;
50773;SDS011;36745;48.544;8.918;2023-08-12T05:13:17;15.57;;;11.80;;
50773;SDS011;36745;48.544;8.918;2023-08-12T05:16:36;12.55;;;10.43;;
50773;SDS011;36745;48.544;8.918;2023-08-12T05:19:55;15.63;;;10.77;;
50773;SDS011;36745;48.544;8.918;2023-08-12T05:23:14;15.55;;;11.05;;
50773;SDS011;36745;48.544;8.918;2023-08-12T05:26:33;13.00;;;11.32;;
50773;SDS011;36745;48.544;8.918;2023-08-12T05:29:52;12.95;;;11.38;;
50773;SDS011;36745;48.544;8.918;2023-08-12T05:37:01;13.60;;;10.23;;
50773;SDS011;36745;48.544;8.918;2023-08-12T05:40:20;15.88;;;11.32;;
50773;SDS011;36745;48.544;8.918;2023-08-12T05:43:39;12.77;;;10.80;;
50773;SDS011;36745;48.544;8.918;2023-08-12T05:46:58;17.27;;;11.57;;
50773;SDS011;36745;48.544;8.918;2023-08-12T05:50:17;14.93;;;11.82;;
50773;SDS011;36745;48.544;8.918;2023-08-12T05:53:36;12.70;;;11.38;;
50773;SDS011;36745;48.544;8.918;2023-08-12T05:56:58;14.95;;;12.15;;
50773;SDS011;36745;48.544;8.918;2023-08-12T06:00:18;16.70;;;11.40;;
50773;SDS011;36745;48.544;8.918;2023-08-12T06:03:37;14.27;;;11.40;;
50773;SDS011;36745;48.544;8.918;2023-08-12T06:06:56;11.82;;;10.63;;
50773;SDS011;36745;48.544;8.918;2023-08-12T06:10:15;15.25;;;11.40;;
50773;SDS011;36745;48.544;8.918;2023-08-12T06:13:34;13.63;;;9.82;;
50773;SDS011;36745;48.544;8.918;2023-08-12T06:16:53;12.23;;;10.55;;
50773;SDS011;36745;48.544;8.918;2023-08-12T06:20:12;13.32;;;10.05;;
50773;SDS011;36745;48.544;8.918;2023-08-12T06:23:31;14.43;;;9.75;;
50773;SDS011;36745;48.544;8.918;2023-08-12T06:26:50;10.52;;;9.45;;
50773;SDS011;36745;48.544;8.918;2023-08-12T06:30:09;10.38;;;9.27;;
50773;SDS011;36745;48.544;8.918;2023-08-12T06:33:28;11.32;;;9.02;;
50773;SDS011;36745;48.544;8.918;2023-08-12T06:36:47;10.65;;;8.40;;
50773;SDS011;36745;48.544;8.918;2023-08-12T06:40:06;14.00;;;10.23;;
50773;SDS011;36745;48.544;8.918;2023-08-12T06:43:26;9.82;;;8.70;;
50773;SDS011;36745;48.544;8.918;2023-08-12T06:46:45;11.15;;;7.80;;
50773;SDS011;36745;48.544;8.918;2023-08-12T06:50:04;10.60;;;7.85;;
50773;SDS011;36745;48.544;8.918;2023-08-12T06:53:24;12.27;;;8.80;;
50773;SDS011;36745;48.544;8.918;2023-08-12T06:56:45;8.68;;;7.32;;
50773;SDS011;36745;48.544;8.918;2023-08-12T07:00:04;10.10;;;7.82;;
50773;SDS011;36745;48.544;8.918;2023-08-12T07:03:23;11.00;;;7.32;;
50773;SDS011;36745;48.544;8.918;2023-08-12T07:06:42;11.73;;;7.53;;
50773;SDS011;36745;48.544;8.918;2023-08-12T07:10:01;11.82;;;7.07;;
50773;SDS011;36745;48.544;8.918;2023-08-12T07:13:20;8.40;;;7.00;;
50773;SDS011;36745;48.544;8.918;2023-08-12T07:16:39;10.85;;;7.00;;
50773;SDS011;36745;48.544;8.918;2023-08-12T07:19:58;9.48;;;6.95;;
50773;SDS011;36745;48.544;8.918;2023-08-12T07:23:17;7.32;;;6.63;;
50773;SDS011;36745;48.544;8.918;2023-08-12T07:26:36;7.15;;;5.57;;
50773;SDS011;36745;48.544;8.918;2023-08-12T07:29:55;7.57;;;5.93;;
50773;SDS011;36745;48.544;8.918;2023-08-12T07:33:14;8.70;;;5.95;;
50773;SDS011;36745;48.544;8.918;2023-08-12T07:36:33;6.63;;;5.75;;
50773;SDS011;36745;48.544;8.918;2023-08-12T07:39:51;11.75;;;5.47;;
50773;SDS011;36745;48.544;8.918;2023-08-12T07:43:10;6.72;;;5.40;;
50773;SDS011;36745;48.544;8.918;2023-08-12T07:46:30;8.68;;;5.70;;
50773;SDS011;36745;48.544;8.918;2023-08-12T07:49:49;11.27;;;5.22;;
50773;SDS011;36745;48.544;8.918;2023-08-12T07:53:08;9.20;;;5.20;;
50773;SDS011;36745;48.544;8.918;2023-08-12T07:56:39;5.70;;;5.20;;
50773;SDS011;36745;48.544;8.918;2023-08-12T07:59:52;6.72;;;5.43;;
50773;SDS011;36745;48.544;8.918;2023-08-12T08:03:11;8.93;;;5.43;;
50773;SDS011;36745;48.544;8.918;2023-08-12T08:06:30;6.95;;;5.13;;
50773;SDS011;36745;48.544;8.918;2023-08-12T08:09:50;7.80;;;4.63;;
50773;SDS011;36745;48.544;8.918;2023-08-12T08:13:10;8.20;;;5.40;;
50773;SDS011;36745;48.544;8.918;2023-08-12T08:16:29;6.13;;;5.07;;
50773;SDS011;36745;48.544;8.918;2023-08-12T08:19:48;5.93;;;4.95;;
50773;SDS011;36745;48.544;8.918;2023-08-12T08:23:07;6.10;;;5.35;;
50773;SDS011;36745;48.544;8.918;2023-08-12T08:26:26;8.38;;;5.00;;
50773;SDS011;36745;48.544;8.918;2023-08-12T08:29:45;7.25;;;4.90;;
50773;SDS011;36745;48.544;8.918;2023-08-12T08:33:04;6.30;;;5.05;;
50773;SDS011;36745;48.544;8.918;2023-08-12T08:36:24;8.15;;;5.07;;
50773;SDS011;36745;48.544;8.918;2023-08-12T08:39:43;5.53;;;5.03;;
50773;SDS011;36745;48.544;8.918;2023-08-12T08:43:02;8.27;;;5.45;;
50773;SDS011;36745;48.544;8.918;2023-08-12T08:46:24;8.93;;;4.80;;
50773;SDS011;36745;48.544;8.918;2023-08-12T08:49:43;6.10;;;4.50;;
50773;SDS011;36745;48.544;8.918;2023-08-12T08:53:03;9.73;;;4.78;;
50773;SDS011;36745;48.544;8.918;2023-08-12T08:56:24;9.63;;;4.60;;
50773;SDS011;36745;48.544;8.918;2023-08-12T08:59:43;5.93;;;4.82;;
50773;SDS011;36745;48.544;8.918;2023-08-12T09:03:02;6.88;;;4.13;;
50773;SDS011;36745;48.544;8.918;2023-08-12T09:06:26;6.40;;;4.25;;
50773;SDS011;36745;48.544;8.918;2023-08-12T09:09:48;5.55;;;4.32;;
50773;SDS011;36745;48.544;8.918;2023-08-12T09:13:10;8.30;;;5.17;;
50773;SDS011;36745;48.544;8.918;2023-08-12T09:16:29;8.27;;;4.68;;
50773;SDS011;36745;48.544;8.918;2023-08-12T09:19:48;6.10;;;3.75;;
50773;SDS011;36745;48.544;8.918;2023-08-12T09:23:08;5.13;;;3.47;;
50773;SDS011;36745;48.544;8.918;2023-08-12T09:26:28;5.13;;;3.60;;
50773;SDS011;36745;48.544;8.918;2023-08-12T09:29:47;4.95;;;3.60;;
50773;SDS011;36745;48.544;8.918;2023-08-12T09:33:07;11.80;;;3.92;;
50773;SDS011;36745;48.544;8.918;2023-08-12T09:36:27;5.38;;;3.75;;
50773;SDS011;36745;48.544;8.918;2023-08-12T09:39:48;11.05;;;4.32;;
50773;SDS011;36745;48.544;8.918;2023-08-12T09:43:09;7.85;;;4.57;;
50773;SDS011;36745;48.544;8.918;2023-08-12T09:46:30;13.65;;;4.75;;
50773;SDS011;36745;48.544;8.918;2023-08-12T09:49:52;7.85;;;4.13;;
50773;SDS011;36745;48.544;8.918;2023-08-12T09:53:10;11.27;;;4.40;;
50773;SDS011;36745;48.544;8.918;2023-08-12T09:56:30;8.07;;;4.68;;
50773;SDS011;36745;48.544;8.918;2023-08-12T09:59:54;5.75;;;4.35;;
50773;SDS011;36745;48.544;8.918;2023-08-12T10:03:16;6.63;;;4.30;;
50773;SDS011;36745;48.544;8.918;2023-08-12T10:06:36;4.22;;;3.83;;
50773;SDS011;36745;48.544;8.918;2023-08-12T10:09:56;4.38;;;3.72;;
50773;SDS011;36745;48.544;8.918;2023-08-12T10:13:16;4.68;;;3.70;;
50773;SDS011;36745;48.544;8.918;2023-08-12T10:16:36;4.22;;;3.50;;
50773;SDS011;36745;48.544;8.918;2023-08-12T10:19:55;6.28;;;3.75;;
50773;SDS011;36745;48.544;8.918;2023-08-12T10:23:16;12.82;;;7.22;;
50773;SDS011;36745;48.544;8.918;2023-08-12T10:26:40;9.27;;;4.97;;
50773;SDS011;36745;48.544;8.918;2023-08-12T10:29:59;10.20;;;5.78;;
50773;SDS011;36745;48.544;8.918;2023-08-12T10:33:22;17.83;;;8.48;;
50773;SDS011;36745;48.544;8.918;2023-08-12T10:36:41;8.80;;;5.47;;
50773;SDS011;36745;48.544;8.918;2023-08-12T10:40:04;11.32;;;6.78;;
50773;SDS011;36745;48.544;8.918;2023-08-12T10:43:27;7.95;;;4.50;;
50773;SDS011;36745;48.544;8.918;2023-08-12T10:46:52;4.40;;;3.80;;
50773;SDS011;36745;48.544;8.918;2023-08-12T10:50:18;5.97;;;4.07;;
50773;SDS011;36745;48.544;8.918;2023-08-12T10:53:38;4.82;;;3.67;;
50773;SDS011;36745;48.544;8.918;2023-08-12T10:57:06;5.43;;;3.50;;
50773;SDS011;36745;48.544;8.918;2023-08-12T11:00:30;8.10;;;3.50;;
50773;SDS011;36745;48.544;8.918;2023-08-12T11:03:48;4.95;;;3.05;;
50773;SDS011;36745;48.544;8.918;2023-08-12T11:11:02;6.40;;;3.55;;
50773;SDS011;36745;48.544;8.918;2023-08-12T11:14:21;6.32;;;3.30;;
50773;SDS011;36745;48.544;8.918;2023-08-12T11:17:42;4.72;;;3.20;;
50773;SDS011;36745;48.544;8.918;2023-08-12T11:21:01;5.18;;;3.28;;
50773;SDS011;36745;48.544;8.918;2023-08-12T11:24:22;3.63;;;2.90;;
50773;SDS011;36745;48.544;8.918;2023-08-12T11:27:41;7.75;;;3.58;;
50773;SDS011;36745;48.544;8.918;2023-08-12T11:31:02;7.65;;;4.07;;
50773;SDS011;36745;48.544;8.918;2023-08-12T11:34:21;4.90;;;2.90;;
50773;SDS011;36745;48.544;8.918;2023-08-12T11:37:41;5.35;;;3.50;;
50773;SDS011;36745;48.544;8.918;2023-08-12T11:41:02;8.65;;;3.15;;
50773;SDS011;36745;48.544;8.918;2023-08-12T11:44:21;9.95;;;3.08;;
50773;SDS011;36745;48.544;8.918;2023-08-12T11:47:41;10.15;;;3.55;;
50773;SDS011;36745;48.544;8.918;2023-08-12T11:51:01;6.55;;;3.03;;
50773;SDS011;36745;48.544;8.918;2023-08-12T11:54:20;8.68;;;3.08;;
50773;SDS011;36745;48.544;8.918;2023-08-12T11:57:39;6.15;;;3.60;;
50773;SDS011;36745;48.544;8.918;2023-08-12T12:00:59;5.07;;;3.10;;
50773;SDS011;36745;48.544;8.918;2023-08-12T12:04:20;6.93;;;3.65;;
50773;SDS011;36745;48.544;8.918;2023-08-12T12:07:40;8.13;;;3.30;;
50773;SDS011;36745;48.544;8.918;2023-08-12T12:11:05;8.65;;;7.03;;
50773;SDS011;36745;48.544;8.918;2023-08-12T12:14:25;5.70;;;2.88;;
50773;SDS011;36745;48.544;8.918;2023-08-12T12:17:48;6.75;;;3.50;;
50773;SDS011;36745;48.544;8.918;2023-08-12T12:21:08;12.05;;;4.00;;
50773;SDS011;36745;48.544;8.918;2023-08-12T12:24:29;7.00;;;3.55;;
50773;SDS011;36745;48.544;8.918;2023-08-12T12:27:49;7.38;;;3.88;;
50773;SDS011;36745;48.544;8.918;2023-08-12T12:31:08;11.77;;;4.00;;
50773;SDS011;36745;48.544;8.918;2023-08-12T12:34:26;13.90;;;4.65;;
50773;SDS011;36745;48.544;8.918;2023-08-12T12:37:45;10.48;;;4.70;;
50773;SDS011;36745;48.544;8.918;2023-08-12T12:41:04;8.10;;;3.78;;
50773;SDS011;36745;48.544;8.918;2023-08-12T12:44:23;8.80;;;4.88;;
50773;SDS011;36745;48.544;8.918;2023-08-12T12:47:42;15.15;;;4.80;;
50773;SDS011;36745;48.544;8.918;2023-08-12T12:51:01;8.98;;;4.38;;
50773;SDS011;36745;48.544;8.918;2023-08-12T12:54:20;10.57;;;5.05;;
50773;SDS011;36745;48.544;8.918;2023-08-12T12:57:39;7.40;;;4.15;;
50773;SDS011;36745;48.544;8.918;2023-08-12T13:00:58;12.25;;;6.72;;
50773;SDS011;36745;48.544;8.918;2023-08-12T13:04:17;6.88;;;4.65;;
50773;SDS011;36745;48.544;8.918;2023-08-12T13:07:36;9.18;;;4.93;;
50773;SDS011;36745;48.544;8.918;2023-08-12T13:10:55;7.05;;;4.25;;
50773;SDS011;36745;48.544;8.918;2023-08-12T13:14:15;7.03;;;3.42;;
50773;SDS011;36745;48.544;8.918;2023-08-12T13:17:37;4.67;;;3.00;;
50773;SDS011;36745;48.544;8.918;2023-08-12T13:20:56;4.60;;;2.83;;
50773;SDS011;36745;48.544;8.918;2023-08-12T13:24:15;6.35;;;2.88;;
50773;SDS011;36745;48.544;8.918;2023-08-12T13:27:34;3.03;;;2.30;;
50773;SDS011;36745;48.544;8.918;2023-08-12T13:30:53;6.18;;;2.25;;
50773;SDS011;36745;48.544;8.918;2023-08-12T13:34:12;2.50;;;2.00;;
50773;SDS011;36745;48.544;8.918;2023-08-12T13:37:32;3.67;;;2.30;;
50773;SDS011;36745;48.544;8.918;2023-08-12T13:40:51;3.38;;;2.10;;
50773;SDS011;36745;48.544;8.918;2023-08-12T13:44:10;6.82;;;2.45;;
50773;SDS011;36745;48.544;8.918;2023-08-12T13:47:29;3.50;;;2.17;;
50773;SDS011;36745;48.544;8.918;2023-08-12T13:50:48;5.53;;;1.98;;
50773;SDS011;36745;48.544;8.918;2023-08-12T13:54:09;3.63;;;1.90;;
50773;SDS011;36745;48.544;8.918;2023-08-12T13:57:28;1.80;;;1.50;;
50773;SDS011;36745;48.544;8.918;2023-08-12T14:00:47;3.85;;;1.95;;
50773;SDS011;36745;48.544;8.918;2023-08-12T14:04:06;2.25;;;1.58;;
50773;SDS011;36745;48.544;8.918;2023-08-12T14:07:25;2.08;;;1.70;;
50773;SDS011;36745;48.544;8.918;2023-08-12T14:10:45;3.22;;;1.60;;
50773;SDS011;36745;48.544;8.918;2023-08-12T14:14:05;7.95;;;2.00;;
50773;SDS011;36745;48.544;8.918;2023-08-12T14:17:24;2.38;;;1.63;;
50773;SDS011;36745;48.544;8.918;2023-08-12T14:20:44;2.58;;;1.60;;
50773;SDS011;36745;48.544;8.918;2023-08-12T14:24:04;2.15;;;1.98;;
50773;SDS011;36745;48.544;8.918;2023-08-12T14:27:23;4.35;;;2.05;;
50773;SDS011;36745;48.544;8.918;2023-08-12T14:30:42;4.55;;;2.38;;
50773;SDS011;36745;48.544;8.918;2023-08-12T14:34:01;4.57;;;2.50;;
50773;SDS011;36745;48.544;8.918;2023-08-12T14:37:20;3.22;;;2.80;;
50773;SDS011;36745;48.544;8.918;2023-08-12T14:40:39;4.55;;;2.67;;
50773;SDS011;36745;48.544;8.918;2023-08-12T14:43:58;5.55;;;3.05;;
50773;SDS011;36745;48.544;8.918;2023-08-12T14:47:17;4.70;;;2.80;;
50773;SDS011;36745;48.544;8.918;2023-08-12T14:50:38;5.55;;;2.60;;
50773;SDS011;36745;48.544;8.918;2023-08-12T14:53:57;3.75;;;3.30;;
50773;SDS011;36745;48.544;8.918;2023-08-12T14:57:15;4.97;;;2.90;;
50773;SDS011;36745;48.544;8.918;2023-08-12T15:00:34;3.30;;;3.00;;
50773;SDS011;36745;48.544;8.918;2023-08-12T15:03:54;4.20;;;3.15;;
50773;SDS011;36745;48.544;8.918;2023-08-12T15:07:14;3.63;;;2.90;;
50773;SDS011;36745;48.544;8.918;2023-08-12T15:10:34;4.60;;;2.72;;
50773;SDS011;36745;48.544;8.918;2023-08-12T15:13:53;3.05;;;2.60;;
50773;SDS011;36745;48.544;8.918;2023-08-12T15:17:12;5.28;;;3.03;;
50773;SDS011;36745;48.544;8.918;2023-08-12T15:20:31;3.38;;;3.08;;
50773;SDS011;36745;48.544;8.918;2023-08-12T15:23:50;3.67;;;3.17;;
50773;SDS011;36745;48.544;8.918;2023-08-12T15:27:09;3.45;;;3.15;;
50773;SDS011;36745;48.544;8.918;2023-08-12T15:30:28;3.67;;;3.15;;
50773;SDS011;36745;48.544;8.918;2023-08-12T15:33:47;4.50;;;3.38;;
50773;SDS011;36745;48.544;8.918;2023-08-12T15:37:06;3.47;;;3.17;;
50773;SDS011;36745;48.544;8.918;2023-08-12T15:40:25;4.90;;;3.10;;
50773;SDS011;36745;48.544;8.918;2023-08-12T15:43:44;3.50;;;3.00;;
50773;SDS011;36745;48.544;8.918;2023-08-12T15:47:03;5.05;;;3.08;;
50773;SDS011;36745;48.544;8.918;2023-08-12T15:50:26;4.90;;;3.30;;
50773;SDS011;36745;48.544;8.918;2023-08-12T15:53:45;6.47;;;4.60;;
50773;SDS011;36745;48.544;8.918;2023-08-12T15:57:04;6.75;;;3.50;;
50773;SDS011;36745;48.544;8.918;2023-08-12T16:00:23;4.25;;;3.13;;
50773;SDS011;36745;48.544;8.918;2023-08-12T16:03:41;5.65;;;3.30;;
50773;SDS011;36745;48.544;8.918;2023-08-12T16:07:00;5.78;;;3.70;;
50773;SDS011;36745;48.544;8.918;2023-08-12T16:10:19;4.35;;;3.60;;
50773;SDS011;36745;48.544;8.918;2023-08-12T16:13:38;7.13;;;4.10;;
50773;SDS011;36745;48.544;8.918;2023-08-12T16:16:57;6.65;;;3.38;;
50773;SDS011;36745;48.544;8.918;2023-08-12T16:20:16;7.75;;;4.07;;
50773;SDS011;36745;48.544;8.918;2023-08-12T16:23:35;11.15;;;4.22;;
50773;SDS011;36745;48.544;8.918;2023-08-12T16:26:54;5.07;;;3.58;;
50773;SDS011;36745;48.544;8.918;2023-08-12T16:30:13;14.05;;;4.55;;
50773;SDS011;36745;48.544;8.918;2023-08-12T16:33:32;10.70;;;3.72;;
50773;SDS011;36745;48.544;8.918;2023-08-12T16:36:51;12.15;;;4.30;;
50773;SDS011;36745;48.544;8.918;2023-08-12T16:40:10;8.30;;;3.85;;
50773;SDS011;36745;48.544;8.918;2023-08-12T16:43:29;11.68;;;3.97;;
50773;SDS011;36745;48.544;8.918;2023-08-12T16:46:48;9.95;;;3.83;;
50773;SDS011;36745;48.544;8.918;2023-08-12T16:50:08;9.88;;;4.00;;
50773;SDS011;36745;48.544;8.918;2023-08-12T16:53:27;8.43;;;3.92;;
50773;SDS011;36745;48.544;8.918;2023-08-12T16:56:46;12.20;;;3.80;;
50773;SDS011;36745;48.544;8.918;2023-08-12T17:00:05;8.23;;;3.55;;
50773;SDS011;36745;48.544;8.918;2023-08-12T17:03:25;7.00;;;3.40;;
50773;SDS011;36745;48.544;8.918;2023-08-12T17:06:44;7.00;;;3.10;;
50773;SDS011;36745;48.544;8.918;2023-08-12T17:10:04;4.57;;;2.92;;
50773;SDS011;36745;48.544;8.918;2023-08-12T17:13:23;7.78;;;3.28;;
50773;SDS011;36745;48.544;8.918;2023-08-12T17:16:42;6.18;;;2.78;;
50773;SDS011;36745;48.544;8.918;2023-08-12T17:20:01;7.85;;;3.30;;
50773;SDS011;36745;48.544;8.918;2023-08-12T17:23:22;8.45;;;3.42;;
50773;SDS011;36745;48.544;8.918;2023-08-12T17:26:41;4.63;;;2.72;;
50773;SDS011;36745;48.544;8.918;2023-08-12T17:30:00;7.00;;;2.80;;
50773;SDS011;36745;48.544;8.918;2023-08-12T17:33:19;7.40;;;2.78;;
50773;SDS011;36745;48.544;8.918;2023-08-12T17:36:38;5.68;;;2.70;;
50773;SDS011;36745;48.544;8.918;2023-08-12T17:39:57;6.28;;;2.70;;
50773;SDS011;36745;48.544;8.918;2023-08-12T17:43:18;6.43;;;2.85;;
50773;SDS011;36745;48.544;8.918;2023-08-12T17:46:38;6.30;;;3.10;;
50773;SDS011;36745;48.544;8.918;2023-08-12T17:49:56;6.70;;;2.60;;
50773;SDS011;36745;48.544;8.918;2023-08-12T17:53:15;7.18;;;2.50;;
50773;SDS011;36745;48.544;8.918;2023-08-12T17:56:34;7.60;;;2.85;;
50773;SDS011;36745;48.544;8.918;2023-08-12T17:59:53;6.55;;;2.83;;
50773;SDS011;36745;48.544;8.918;2023-08-12T18:03:12;3.30;;;2.20;;
50773;SDS011;36745;48.544;8.918;2023-08-12T18:06:31;5.35;;;2.10;;
50773;SDS011;36745;48.544;8.918;2023-08-12T18:09:50;3.97;;;2.50;;
50773;SDS011;36745;48.544;8.918;2023-08-12T18:13:09;4.35;;;2.78;;
50773;SDS011;36745;48.544;8.918;2023-08-12T18:16:29;4.32;;;2.22;;
50773;SDS011;36745;48.544;8.918;2023-08-12T18:19:48;4.18;;;2.10;;
50773;SDS011;36745;48.544;8.918;2023-08-12T18:23:07;3.40;;;1.95;;
50773;SDS011;36745;48.544;8.918;2023-08-12T18:26:27;4.85;;;2.55;;
50773;SDS011;36745;48.544;8.918;2023-08-12T18:29:46;6.10;;;2.40;;
50773;SDS011;36745;48.544;8.918;2023-08-12T18:33:05;2.88;;;1.80;;
50773;SDS011;36745;48.544;8.918;2023-08-12T18:36:24;4.30;;;1.73;;
50773;SDS011;36745;48.544;8.918;2023-08-12T18:39:43;3.72;;;2.20;;
50773;SDS011;36745;48.544;8.918;2023-08-12T18:43:02;3.50;;;2.10;;
50773;SDS011;36745;48.544;8.918;2023-08-12T18:46:21;7.15;;;2.88;;
50773;SDS011;36745;48.544;8.918;2023-08-12T18:49:39;7.03;;;2.20;;
50773;SDS011;36745;48.544;8.918;2023-08-12T18:52:58;6.55;;;2.30;;
50773;SDS011;36745;48.544;8.918;2023-08-12T18:56:17;6.47;;;2.97;;
50773;SDS011;36745;48.544;8.918;2023-08-12T18:59:36;5.22;;;2.92;;
50773;SDS011;36745;48.544;8.918;2023-08-12T19:02:56;5.63;;;2.85;;
50773;SDS011;36745;48.544;8.918;2023-08-12T19:06:15;6.70;;;2.78;;
50773;SDS011;36745;48.544;8.918;2023-08-12T19:09:34;5.22;;;2.10;;
50773;SDS011;36745;48.544;8.918;2023-08-12T19:12:53;7.97;;;2.28;;
50773;SDS011;36745;48.544;8.918;2023-08-12T19:16:12;3.22;;;2.03;;
50773;SDS011;36745;48.544;8.918;2023-08-12T19:19:31;12.02;;;2.67;;
50773;SDS011;36745;48.544;8.918;2023-08-12T19:22:50;7.45;;;2.65;;
50773;SDS011;36745;48.544;8.918;2023-08-12T19:26:09;4.95;;;2.20;;
50773;SDS011;36745;48.544;8.918;2023-08-12T19:29:28;4.88;;;2.40;;
50773;SDS011;36745;48.544;8.918;2023-08-12T19:36:07;4.90;;;2.80;;
50773;SDS011;36745;48.544;8.918;2023-08-12T19:39:26;6.38;;;2.40;;
50773;SDS011;36745;48.544;8.918;2023-08-12T19:42:45;4.43;;;2.60;;
50773;SDS011;36745;48.544;8.918;2023-08-12T19:46:04;4.65;;;2.50;;
50773;SDS011;36745;48.544;8.918;2023-08-12T19:49:22;4.82;;;2.17;;
50773;SDS011;36745;48.544;8.918;2023-08-12T19:52:43;4.30;;;3.10;;
50773;SDS011;36745;48.544;8.918;2023-08-12T19:56:02;4.68;;;2.60;;
50773;SDS011;36745;48.544;8.918;2023-08-12T19:59:20;6.78;;;3.38;;
50773;SDS011;36745;48.544;8.918;2023-08-12T20:02:39;5.75;;;3.53;;